Time;durP1;ratioP1;P1;durP2;ratioP2;P2;SDS_P1;SDS_P2;PMS_P1;PMS_P2;Temp;Humidity;BMP_temperature;BMP_pressure;BME280_temperature;BME280_humidity;BME280_pressure;Samples;Min_cycle;Max_cycle;Signal;HPM_P1;HPM_P2
2023/09/05 00:00:13;;;;;;;4.43;3.67;;;;;;;16.06;100.00;98681.50;4994399;28;20233;-82
2023/09/05 00:02:40;;;;;;;4.50;3.87;;;;;;;16.07;100.00;98669.84;4998856;28;20210;-82
2023/09/05 00:05:07;;;;;;;3.97;3.50;;;;;;;16.06;100.00;98670.81;4998514;28;20699;-82
2023/09/05 00:07:39;;;;;;;4.17;3.77;;;;;;;16.08;99.69;98667.03;4998770;28;20210;-83
2023/09/05 00:10:07;;;;;;;3.87;3.33;;;;;;;16.03;99.68;98662.06;4998463;28;20238;-81
2023/09/05 00:12:33;;;;;;;4.53;3.40;;;;;;;16.05;100.00;98656.63;4998513;28;20251;-81
2023/09/05 00:15:00;;;;;;;4.17;3.70;;;;;;;16.07;99.44;98659.16;4998415;28;20210;-81
2023/09/05 00:17:26;;;;;;;4.37;3.70;;;;;;;16.09;99.45;98653.56;4998636;28;20210;-81
2023/09/05 00:19:55;;;;;;;4.37;3.50;;;;;;;16.13;98.97;98655.03;4998580;28;20225;-81
2023/09/05 00:22:22;;;;;;;4.63;3.70;;;;;;;16.13;97.58;98647.03;4998540;28;20210;-81
2023/09/05 00:24:50;;;;;;;3.67;3.30;;;;;;;16.15;97.03;98653.06;4998358;28;20213;-82
2023/09/05 00:27:16;;;;;;;3.90;3.20;;;;;;;16.10;96.83;98649.09;4998090;28;20218;-81
2023/09/05 00:29:43;;;;;;;4.17;3.40;;;;;;;16.03;96.74;98642.59;4998311;28;20685;-81
2023/09/05 00:32:10;;;;;;;3.43;3.00;;;;;;;16.00;94.27;98647.31;4998026;28;20244;-81
2023/09/05 00:34:38;;;;;;;4.23;2.83;;;;;;;16.08;91.53;98643.88;4998252;28;20219;-81
2023/09/05 00:37:06;;;;;;;3.30;2.83;;;;;;;16.08;89.97;98639.53;4998236;28;20210;-81
2023/09/05 00:39:34;;;;;;;3.67;3.13;;;;;;;16.02;89.88;98636.41;4998508;28;20216;-81
2023/09/05 00:42:05;;;;;;;4.10;3.10;;;;;;;15.92;90.80;98639.09;4997856;28;20234;-81
2023/09/05 00:44:32;;;;;;;3.53;2.63;;;;;;;15.86;91.18;98652.94;4998450;28;20268;-81
2023/09/05 00:47:00;;;;;;;3.17;2.87;;;;;;;15.81;91.71;98652.47;4998181;28;20252;-81
2023/09/05 00:49:28;;;;;;;4.23;2.97;;;;;;;15.74;91.98;98649.47;4998409;28;20210;-81
2023/09/05 00:51:56;;;;;;;3.80;2.93;;;;;;;15.71;92.13;98647.03;4997567;28;20226;-84
2023/09/05 00:54:23;;;;;;;3.93;3.23;;;;;;;15.73;91.72;98646.91;4998524;28;20206;-81
2023/09/05 00:56:50;;;;;;;3.27;2.53;;;;;;;15.73;91.55;98642.44;4997660;28;20241;-81
2023/09/05 00:59:19;;;;;;;3.17;2.73;;;;;;;15.74;90.71;98640.59;4998085;28;20206;-81
2023/09/05 01:01:47;;;;;;;5.17;2.93;;;;;;;15.73;90.65;98645.09;4997950;28;20234;-81
2023/09/05 01:04:14;;;;;;;4.60;2.93;;;;;;;15.70;91.03;98644.53;4997411;28;20216;-81
2023/09/05 01:06:50;;;;;;;4.60;3.03;;;;;;;15.68;91.14;98638.44;4997011;28;20290;-80
2023/09/05 01:09:26;;;;;;;4.73;2.67;;;;;;;15.70;91.59;98636.53;4996938;28;20585;-81
2023/09/05 01:11:53;;;;;;;2.97;2.50;;;;;;;15.69;91.25;98638.31;4996604;28;20233;-81
2023/09/05 01:14:21;;;;;;;2.63;2.23;;;;;;;15.69;90.49;98645.47;4997697;28;20221;-81
2023/09/05 01:16:48;;;;;;;3.00;2.50;;;;;;;15.70;89.51;98639.19;4997678;28;20221;-81
2023/09/05 01:19:16;;;;;;;3.17;2.43;;;;;;;15.73;88.66;98639.78;4997283;28;20221;-81
2023/09/05 01:21:56;;;;;;;3.20;2.40;;;;;;;15.70;88.58;98641.84;4996629;28;20244;-81
2023/09/05 01:24:24;;;;;;;3.37;2.63;;;;;;;15.70;88.57;98641.84;4997832;28;20214;-81
2023/09/05 01:26:52;;;;;;;3.00;2.40;;;;;;;15.62;88.92;98645.13;4997133;28;20218;-81
2023/09/05 01:29:26;;;;;;;3.63;2.70;;;;;;;15.61;88.71;98647.91;4997436;28;20696;-81
2023/09/05 01:31:54;;;;;;;2.63;2.33;;;;;;;15.67;87.87;98645.59;4996759;28;20700;-81
2023/09/05 01:34:20;;;;;;;3.03;2.30;;;;;;;15.74;87.44;98645.94;4996909;28;20233;-81
2023/09/05 01:36:47;;;;;;;3.40;2.23;;;;;;;15.85;85.38;98635.25;4996831;28;20206;-81
2023/09/05 01:39:13;;;;;;;2.57;2.20;;;;;;;15.91;84.76;98634.75;4997152;28;20206;-81
2023/09/05 01:41:41;;;;;;;3.97;2.50;;;;;;;16.04;83.72;98634.44;4996598;28;20234;-81
2023/09/05 01:44:08;;;;;;;3.13;2.13;;;;;;;16.08;84.06;98628.88;4997359;28;20678;-81
2023/09/05 01:46:34;;;;;;;3.17;2.50;;;;;;;16.04;84.79;98633.59;4997064;28;20206;-81
2023/09/05 01:49:01;;;;;;;2.47;2.20;;;;;;;16.05;85.04;98624.63;4996077;28;20217;-81
2023/09/05 01:51:27;;;;;;;2.73;2.20;;;;;;;16.02;84.57;98624.03;4996746;28;20594;-81
2023/09/05 01:53:54;;;;;;;3.13;2.07;;;;;;;16.01;85.26;98623.19;4997381;28;20209;-81
2023/09/05 01:56:20;;;;;;;3.40;2.47;;;;;;;16.02;85.40;98620.41;4997067;28;20218;-81
2023/09/05 01:58:48;;;;;;;2.70;2.27;;;;;;;15.92;86.02;98628.44;4996652;28;20601;-81
2023/09/05 02:01:15;;;;;;;3.90;2.30;;;;;;;15.83;86.86;98626.53;4996113;28;20234;-81
2023/09/05 02:03:41;;;;;;;3.33;2.23;;;;;;;15.74;87.80;98624.63;4995928;28;20214;-81
2023/09/05 02:06:07;;;;;;;3.10;2.40;;;;;;;15.73;87.51;98633.59;4996698;28;20206;-81
2023/09/05 02:08:34;;;;;;;4.93;2.33;;;;;;;15.77;87.05;98621.72;4996706;28;20236;-81
2023/09/05 02:11:01;;;;;;;3.47;2.53;;;;;;;15.86;86.12;98612.94;4997878;28;20262;-82
2023/09/05 02:13:29;;;;;;;2.30;2.10;;;;;;;15.87;85.51;98614.63;4996352;28;20214;-81
2023/09/05 02:15:56;;;;;;;2.43;2.00;;;;;;;15.88;85.75;98616.34;4999349;28;20485;-81
2023/09/05 02:18:23;;;;;;;3.30;2.50;;;;;;;15.84;86.28;98625.56;5004567;28;20212;-81
2023/09/05 02:20:50;;;;;;;3.23;2.33;;;;;;;15.81;87.06;98621.31;5004780;28;20734;-80
2023/09/05 02:23:16;;;;;;;3.77;2.60;;;;;;;15.81;87.20;98617.81;4996239;28;20221;-81
2023/09/05 02:25:43;;;;;;;2.43;2.10;;;;;;;15.81;86.66;98615.13;4996576;28;20206;-82
2023/09/05 02:28:09;;;;;;;2.13;1.93;;;;;;;15.80;86.70;98621.44;4995838;28;20221;-82
2023/09/05 02:30:43;;;;;;;5.20;2.43;;;;;;;15.77;87.31;98613.72;4994622;28;20262;-82
2023/09/05 02:33:11;;;;;;;4.93;2.23;;;;;;;15.73;87.27;98614.94;4996071;28;20681;-82
2023/09/05 02:35:37;;;;;;;3.03;2.40;;;;;;;15.67;88.05;98629.63;4996253;28;20210;-82
2023/09/05 02:38:04;;;;;;;3.47;2.37;;;;;;;15.62;88.73;98623.81;4996247;28;20226;-81
2023/09/05 02:40:30;;;;;;;3.50;2.30;;;;;;;15.71;87.08;98627.56;4995159;28;20230;-82
2023/09/05 02:42:57;;;;;;;3.00;2.20;;;;;;;15.69;87.18;98624.16;4995832;28;20241;-82
2023/09/05 02:45:23;;;;;;;4.70;2.47;;;;;;;15.76;86.53;98625.34;4996082;28;20563;-82
2023/09/05 02:47:50;;;;;;;2.77;2.47;;;;;;;15.77;85.58;98619.06;4995999;28;20233;-82
2023/09/05 02:50:18;;;;;;;2.67;2.17;;;;;;;15.74;85.79;98629.94;4995289;28;20229;-82
2023/09/05 02:52:44;;;;;;;3.73;2.33;;;;;;;15.73;85.96;98628.25;4995401;28;20583;-82
2023/09/05 02:55:11;;;;;;;3.00;2.57;;;;;;;15.74;86.61;98636.13;4995242;28;20701;-82
2023/09/05 02:57:37;;;;;;;2.67;2.30;;;;;;;15.70;86.71;98639.19;4995339;28;20768;-82
2023/09/05 03:00:06;;;;;;;2.30;2.10;;;;;;;15.63;87.42;98632.66;4994901;28;20214;-82
2023/09/05 03:02:32;;;;;;;2.70;2.20;;;;;;;15.59;87.92;98641.88;4994917;28;20234;-82
2023/09/05 03:04:59;;;;;;;2.63;2.13;;;;;;;15.55;88.24;98640.41;4995291;28;20635;-81
2023/09/05 03:07:26;;;;;;;2.40;2.13;;;;;;;15.50;89.08;98647.94;4993573;28;20222;-81
2023/09/05 03:09:53;;;;;;;4.03;1.87;;;;;;;15.45;89.78;98650.16;4994912;28;20218;-82
2023/09/05 03:12:20;;;;;;;2.87;2.07;;;;;;;15.38;89.76;98649.78;4994663;28;20202;-81
2023/09/05 03:14:45;;;;;;;2.73;1.93;;;;;;;15.34;89.88;98650.16;4994114;28;20206;-82
2023/09/05 03:17:12;;;;;;;3.17;2.20;;;;;;;15.28;90.90;98653.28;4994297;28;20212;-82
2023/09/05 03:19:41;;;;;;;3.30;2.40;;;;;;;15.22;91.26;98654.59;4994384;28;20221;-82
2023/09/05 03:22:08;;;;;;;3.43;2.30;;;;;;;15.20;91.23;98650.34;4993648;28;20234;-81
2023/09/05 03:24:36;;;;;;;2.73;2.17;;;;;;;15.16;91.55;98648.94;4994332;28;20214;-82
2023/09/05 03:27:04;;;;;;;4.17;2.67;;;;;;;15.20;91.69;98645.03;4994263;28;20206;-81
2023/09/05 03:29:30;;;;;;;4.30;2.50;;;;;;;15.24;90.71;98641.16;4994208;28;20218;-82
2023/09/05 03:31:57;;;;;;;2.80;2.17;;;;;;;15.23;91.28;98645.66;4993250;28;20237;-82
2023/09/05 03:34:23;;;;;;;2.30;2.10;;;;;;;15.25;91.19;98643.72;4993963;28;20221;-82
2023/09/05 03:36:50;;;;;;;2.97;2.20;;;;;;;15.22;91.38;98638.63;4993294;28;20540;-82
2023/09/05 03:39:16;;;;;;;2.67;2.10;;;;;;;15.17;91.85;98646.16;4993367;28;20225;-81
2023/09/05 03:41:45;;;;;;;2.60;2.40;;;;;;;15.13;92.60;98649.16;4993277;28;20274;-81
2023/09/05 03:44:11;;;;;;;2.67;2.20;;;;;;;15.11;92.33;98648.44;4993872;28;20221;-81
2023/09/05 03:46:38;;;;;;;2.70;2.03;;;;;;;15.08;92.27;98635.34;4993842;28;20214;-81
2023/09/05 03:49:04;;;;;;;2.77;2.20;;;;;;;15.06;91.79;98634.63;4993966;28;20218;-82
2023/09/05 03:51:32;;;;;;;3.27;2.50;;;;;;;15.03;91.44;98632.22;4993099;28;20727;-81
2023/09/05 03:53:59;;;;;;;2.70;2.00;;;;;;;14.99;91.53;98638.75;4993490;28;20209;-82
2023/09/05 03:56:26;;;;;;;3.13;2.27;;;;;;;14.93;92.21;98637.44;4993808;28;20210;-82
2023/09/05 03:58:54;;;;;;;2.33;2.00;;;;;;;14.91;92.78;98633.19;4993180;28;20218;-81
2023/09/05 04:01:20;;;;;;;3.33;2.10;;;;;;;14.87;92.78;98637.91;4993095;28;20269;-81
2023/09/05 04:03:47;;;;;;;2.23;2.00;;;;;;;14.86;92.46;98630.03;4993398;28;20209;-81
2023/09/05 04:06:13;;;;;;;2.70;1.93;;;;;;;14.84;92.88;98630.16;4993771;28;20210;-81
2023/09/05 04:08:40;;;;;;;3.67;2.40;;;;;;;14.84;93.41;98626.66;5000708;28;20560;-81
2023/09/05 04:11:06;;;;;;;2.67;2.23;;;;;;;14.81;93.75;98627.75;5004575;28;20227;-82
2023/09/05 04:13:33;;;;;;;3.33;2.33;;;;;;;14.79;94.50;98631.50;5003362;28;20218;-81
2023/09/05 04:16:05;;;;;;;2.63;2.10;;;;;;;14.75;95.50;98630.03;4995809;28;20217;-82
2023/09/05 04:18:32;;;;;;;3.83;2.10;;;;;;;14.74;95.59;98628.34;4995483;28;20232;-82
2023/09/05 04:20:58;;;;;;;2.73;2.43;;;;;;;14.76;95.76;98629.91;4994785;28;20261;-81
2023/09/05 04:23:25;;;;;;;2.87;2.37;;;;;;;14.81;94.77;98633.06;4995489;28;20230;-82
2023/09/05 04:25:57;;;;;;;4.37;2.90;;;;;;;14.79;95.13;98629.66;4994858;28;20218;-82
2023/09/05 04:28:24;;;;;;;3.83;2.37;;;;;;;14.84;95.42;98626.66;4994533;28;20776;-82
2023/09/05 04:30:51;;;;;;;3.30;2.90;;;;;;;14.85;95.42;98628.34;4994077;28;20581;-82
2023/09/05 04:33:19;;;;;;;3.83;2.57;;;;;;;14.76;95.88;98629.91;4994975;28;20214;-82
2023/09/05 04:35:45;;;;;;;4.47;2.30;;;;;;;14.68;96.66;98642.13;4994698;28;20210;-82
2023/09/05 04:38:12;;;;;;;3.80;2.37;;;;;;;14.59;97.35;98632.19;4994242;28;20694;-82
2023/09/05 04:40:38;;;;;;;2.60;2.40;;;;;;;14.46;98.44;98642.94;4993887;28;20612;-81
2023/09/05 04:43:05;;;;;;;3.87;2.27;;;;;;;14.36;99.45;98647.25;4993873;28;20257;-82
2023/09/05 04:45:32;;;;;;;3.43;2.30;;;;;;;14.29;99.90;98642.53;4994023;28;20210;-81
2023/09/05 04:47:58;;;;;;;3.60;2.63;;;;;;;14.23;100.00;98641.16;4994944;28;20298;-81
2023/09/05 04:50:26;;;;;;;2.87;2.23;;;;;;;14.18;100.00;98650.44;4996903;28;20642;-81
2023/09/05 04:52:53;;;;;;;2.83;2.33;;;;;;;14.17;100.00;98646.09;4996983;28;20210;-82
2023/09/05 04:55:19;;;;;;;4.10;2.33;;;;;;;14.18;100.00;98647.78;4997335;28;20237;-81
2023/09/05 04:57:47;;;;;;;3.60;2.70;;;;;;;14.19;100.00;98645.00;4997359;28;20217;-82
2023/09/05 05:00:17;;;;;;;3.67;3.00;;;;;;;14.30;100.00;98639.75;4996586;28;20238;-81
2023/09/05 05:02:44;;;;;;;3.13;2.70;;;;;;;14.40;100.00;98647.84;4996878;28;20229;-81
2023/09/05 05:05:12;;;;;;;3.30;2.50;;;;;;;14.44;100.00;98649.34;4997572;28;20210;-81
2023/09/05 05:07:40;;;;;;;3.33;2.60;;;;;;;14.49;100.00;98647.16;4997519;28;20206;-81
2023/09/05 05:10:08;;;;;;;3.60;2.30;;;;;;;14.52;100.00;98641.59;4996595;28;20636;-81
2023/09/05 05:12:35;;;;;;;3.13;2.40;;;;;;;14.54;100.00;98647.66;4996925;28;20202;-82
2023/09/05 05:15:01;;;;;;;3.57;2.70;;;;;;;14.57;100.00;98655.41;4996370;28;20221;-82
2023/09/05 05:17:28;;;;;;;4.03;2.70;;;;;;;14.62;100.00;98658.56;4997141;28;20214;-81
2023/09/05 05:19:55;;;;;;;3.27;2.63;;;;;;;14.65;100.00;98653.00;4996323;28;20214;-81
2023/09/05 05:22:21;;;;;;;3.70;2.63;;;;;;;14.68;100.00;98660.75;4996213;28;20755;-81
2023/09/05 05:24:51;;;;;;;2.97;2.30;;;;;;;14.72;100.00;98654.22;4996430;28;20693;-81
2023/09/05 05:27:17;;;;;;;5.10;2.70;;;;;;;14.80;100.00;98662.47;4996670;28;20237;-81
2023/09/05 05:29:44;;;;;;;2.87;2.50;;;;;;;14.83;100.00;98657.75;4996423;28;20301;-81
2023/09/05 05:32:10;;;;;;;2.60;2.40;;;;;;;14.93;100.00;98663.19;4996505;28;20759;-82
2023/09/05 05:34:37;;;;;;;3.13;2.60;;;;;;;15.02;100.00;98668.66;4996639;28;20206;-82
2023/09/05 05:37:03;;;;;;;3.10;2.67;;;;;;;15.15;100.00;98663.22;4996626;28;20210;-82
2023/09/05 05:39:30;;;;;;;4.07;2.50;;;;;;;15.25;100.00;98653.50;4997240;28;20214;-82
2023/09/05 05:41:58;;;;;;;3.30;2.57;;;;;;;15.38;100.00;98660.44;4996169;28;20237;-81
2023/09/05 05:44:24;;;;;;;4.80;2.93;;;;;;;15.50;100.00;98653.25;4996908;28;20244;-81
2023/09/05 05:46:51;;;;;;;4.73;2.43;;;;;;;15.61;100.00;98650.56;4996442;28;20214;-82
2023/09/05 05:49:17;;;;;;;5.27;2.90;;;;;;;15.74;100.00;98656.59;4996578;28;20668;-82
2023/09/05 05:51:44;;;;;;;4.40;2.83;;;;;;;15.87;100.00;98651.94;4996056;28;20234;-81
2023/09/05 05:54:10;;;;;;;3.07;2.30;;;;;;;16.01;100.00;98651.69;4996537;28;20218;-81
2023/09/05 05:56:37;;;;;;;3.57;2.47;;;;;;;16.15;100.00;98653.06;4996095;28;20229;-81
2023/09/05 05:59:06;;;;;;;2.40;2.20;;;;;;;16.30;100.00;98656.28;4996344;28;20218;-81
2023/09/05 06:01:33;;;;;;;4.00;2.77;;;;;;;16.47;100.00;98658.41;4996954;28;20233;-81
2023/09/05 06:04:00;;;;;;;3.93;2.70;;;;;;;16.69;97.49;98653.78;4996810;28;20721;-81
2023/09/05 06:06:26;;;;;;;2.50;2.30;;;;;;;16.84;96.49;98641.78;4997458;28;20210;-81
2023/09/05 06:08:53;;;;;;;2.57;2.30;;;;;;;17.04;93.48;98638.22;4996982;28;20214;-81
2023/09/05 06:11:20;;;;;;;2.90;2.50;;;;;;;17.13;92.31;98637.41;4996378;28;20234;-81
2023/09/05 06:13:46;;;;;;;2.33;1.97;;;;;;;17.36;88.78;98632.69;4995020;28;20214;-81
2023/09/05 06:16:14;;;;;;;2.87;2.47;;;;;;;17.48;87.96;98639.66;4996949;28;20594;-81
2023/09/05 06:18:41;;;;;;;3.93;2.70;;;;;;;17.60;87.09;98642.09;4998118;28;20210;-81
2023/09/05 06:21:08;;;;;;;3.80;2.40;;;;;;;17.73;87.22;98642.69;4997491;28;20648;-81
2023/09/05 06:23:35;;;;;;;2.73;2.30;;;;;;;17.83;85.83;98630.19;4994954;28;20318;-81
2023/09/05 06:26:01;;;;;;;3.33;2.33;;;;;;;17.93;84.33;98638.22;4994496;28;20640;-81
2023/09/05 06:28:28;;;;;;;3.93;2.40;;;;;;;18.03;83.90;98639.91;4994996;28;20217;-81
2023/09/05 06:30:57;;;;;;;3.90;2.30;;;;;;;18.10;83.94;98640.22;4994858;28;20229;-81
2023/09/05 06:33:25;;;;;;;4.03;2.40;;;;;;;18.16;83.69;98640.47;4994940;28;20206;-81
2023/09/05 06:35:52;;;;;;;3.00;2.70;;;;;;;18.25;83.62;98639.66;4994595;28;20609;-81
2023/09/05 06:38:21;;;;;;;3.23;2.63;;;;;;;18.34;84.02;98638.81;4994827;28;20586;-81
2023/09/05 06:40:47;;;;;;;4.60;2.47;;;;;;;18.43;84.21;98648.69;5001541;28;20322;-81
2023/09/05 06:43:15;;;;;;;2.70;2.43;;;;;;;18.49;84.59;98642.75;5001456;28;20244;-81
2023/09/05 06:45:41;;;;;;;2.90;2.40;;;;;;;18.58;84.17;98635.69;5001683;28;20214;-81
2023/09/05 06:48:08;;;;;;;2.53;2.33;;;;;;;18.66;83.10;98638.50;5000479;28;20271;-81
2023/09/05 06:50:35;;;;;;;5.67;2.53;;;;;;;18.70;81.59;98624.66;4996780;28;20328;-82
2023/09/05 06:53:02;;;;;;;2.43;2.23;;;;;;;18.76;81.34;98634.81;4995991;28;20211;-82
2023/09/05 06:55:28;;;;;;;4.07;2.47;;;;;;;18.94;80.12;98627.72;4996637;28;20304;-81
2023/09/05 06:57:55;;;;;;;2.13;1.90;;;;;;;18.99;80.38;98636.16;4996599;28;20210;-82
2023/09/05 07:00:25;;;;;;;2.90;2.53;;;;;;;19.11;79.94;98647.53;4996258;28;20237;-81
2023/09/05 07:02:52;;;;;;;2.50;2.17;;;;;;;19.17;78.72;98642.44;4996743;28;20704;-81
2023/09/05 07:05:18;;;;;;;2.43;2.23;;;;;;;19.31;77.13;98639.28;4996494;28;20210;-81
2023/09/05 07:07:46;;;;;;;2.40;2.20;;;;;;;19.34;78.37;98647.06;4997484;28;20224;-81
2023/09/05 07:10:13;;;;;;;3.10;2.27;;;;;;;19.43;77.86;98648.84;4995330;28;20249;-79
2023/09/05 07:12:39;;;;;;;2.70;2.20;;;;;;;19.66;77.38;98652.81;4995678;28;20226;-80
2023/09/05 07:15:06;;;;;;;5.73;2.40;;;;;;;19.72;76.36;98646.84;4995409;28;20306;-81
2023/09/05 07:17:33;;;;;;;2.87;2.33;;;;;;;19.90;78.26;98658.44;4994716;28;20209;-81
2023/09/05 07:19:59;;;;;;;3.17;2.40;;;;;;;20.03;75.45;98637.44;4994257;28;20220;-81
2023/09/05 07:22:26;;;;;;;3.53;2.33;;;;;;;20.13;76.49;98650.84;4994701;28;20207;-81
2023/09/05 07:24:54;;;;;;;5.03;2.10;;;;;;;20.30;74.58;98639.25;4994738;28;20218;-81
2023/09/05 07:27:20;;;;;;;2.50;2.27;;;;;;;20.39;73.89;98631.13;4995039;28;20214;-81
2023/09/05 07:29:47;;;;;;;3.03;2.23;;;;;;;20.53;72.85;98618.94;4996034;28;20213;-82
2023/09/05 07:32:13;;;;;;;3.57;2.23;;;;;;;20.59;73.98;98629.94;4997745;28;20641;-82
2023/09/05 07:34:39;;;;;;;2.97;2.53;;;;;;;20.73;72.86;98618.59;5000412;28;20209;-81
2023/09/05 07:37:05;;;;;;;3.37;2.37;;;;;;;20.81;72.36;98621.38;4997570;28;20216;-82
2023/09/05 07:39:32;;;;;;;2.20;2.00;;;;;;;20.91;70.78;98610.53;4998239;28;20221;-81
2023/09/05 07:42:01;;;;;;;2.77;2.57;;;;;;;21.01;70.37;98611.25;4997002;28;20237;-81
2023/09/05 07:44:27;;;;;;;3.57;2.60;;;;;;;21.06;69.95;98608.94;4996256;28;20318;-82
2023/09/05 07:46:54;;;;;;;2.27;2.07;;;;;;;21.16;71.26;98620.44;4997991;28;20234;-81
2023/09/05 07:49:20;;;;;;;3.10;2.10;;;;;;;21.26;71.06;98619.28;4997664;28;20221;-81
2023/09/05 07:51:47;;;;;;;2.57;2.17;;;;;;;21.38;69.68;98604.56;4996046;28;20230;-82
2023/09/05 07:54:16;;;;;;;2.90;2.20;;;;;;;21.50;67.57;98600.56;4994736;28;20210;-81
2023/09/05 07:56:42;;;;;;;2.67;2.20;;;;;;;21.64;67.78;98599.13;4994440;28;20214;-80
2023/09/05 07:59:10;;;;;;;2.40;2.20;;;;;;;21.76;65.89;98592.47;4994232;28;20222;-80
2023/09/05 08:01:38;;;;;;;2.40;2.07;;;;;;;21.75;65.01;98586.22;4993210;28;20217;-80
2023/09/05 08:04:04;;;;;;;2.47;2.10;;;;;;;21.93;65.03;98594.16;4993928;28;20296;-80
2023/09/05 08:06:31;;;;;;;3.57;2.30;;;;;;;21.99;62.39;98578.19;4995046;28;20440;-81
2023/09/05 08:08:57;;;;;;;3.70;2.03;;;;;;;22.14;62.09;98578.38;4994257;28;20217;-82
2023/09/05 08:11:24;;;;;;;2.93;1.90;;;;;;;22.29;62.27;98582.06;4994438;28;20238;-80
2023/09/05 08:13:51;;;;;;;2.63;1.80;;;;;;;22.27;60.37;98571.50;4994830;28;20564;-80
2023/09/05 08:16:19;;;;;;;2.50;2.00;;;;;;;22.28;60.57;98567.78;4994352;28;20232;-80
2023/09/05 08:18:46;;;;;;;2.20;1.90;;;;;;;22.45;59.83;98569.50;4994168;28;20210;-80
2023/09/05 08:21:12;;;;;;;3.87;1.77;;;;;;;22.49;60.35;98575.38;4994833;28;20340;-81
2023/09/05 08:23:39;;;;;;;2.77;1.80;;;;;;;22.59;59.79;98559.84;4998252;28;20307;-81
2023/09/05 08:26:10;;;;;;;2.47;1.80;;;;;;;22.60;58.62;98557.00;4998519;28;20206;-81
2023/09/05 08:28:42;;;;;;;2.80;2.00;;;;;;;22.69;61.59;98577.56;4998336;28;20207;-81
2023/09/05 08:31:09;;;;;;;2.70;1.90;;;;;;;22.80;59.07;98565.56;4996946;28;20238;-81
2023/09/05 08:33:36;;;;;;;2.17;1.90;;;;;;;22.92;58.65;98564.19;4998157;28;20218;-82
2023/09/05 08:36:05;;;;;;;2.50;2.10;;;;;;;22.91;58.19;98565.22;4997659;28;20306;-82
2023/09/05 08:38:31;;;;;;;3.50;2.00;;;;;;;22.99;58.04;98563.31;4998288;28;20222;-81
2023/09/05 08:41:00;;;;;;;3.60;2.03;;;;;;;23.08;57.06;98553.34;4997041;28;20708;-83
2023/09/05 08:43:27;;;;;;;2.20;1.97;;;;;;;23.10;56.73;98557.53;4996674;28;20241;-81
2023/09/05 08:45:54;;;;;;;2.37;1.93;;;;;;;23.05;56.67;98554.53;4997216;28;20586;-81
2023/09/05 08:48:21;;;;;;;2.80;1.80;;;;;;;23.11;58.69;98575.41;4996798;28;20202;-81
2023/09/05 08:50:49;;;;;;;2.77;2.07;;;;;;;23.15;57.58;98563.25;4996243;28;20300;-81
2023/09/05 08:53:19;;;;;;;2.33;1.90;;;;;;;23.25;57.52;98561.25;4997053;28;20257;-81
2023/09/05 08:55:46;;;;;;;1.90;1.70;;;;;;;23.25;55.72;98553.16;4996666;28;20514;-81
2023/09/05 08:58:14;;;;;;;2.77;1.80;;;;;;;23.33;55.71;98554.94;4996971;28;20209;-81
2023/09/05 09:00:41;;;;;;;1.83;1.70;;;;;;;23.30;54.81;98548.06;4995907;28;20230;-81
2023/09/05 09:03:07;;;;;;;2.30;1.70;;;;;;;23.39;57.97;98574.00;4996447;28;20226;-81
2023/09/05 09:05:35;;;;;;;2.83;1.90;;;;;;;23.55;56.58;98554.19;4997265;28;20242;-81
2023/09/05 09:08:05;;;;;;;2.10;1.70;;;;;;;23.66;56.54;98560.00;4996266;28;20218;-81
2023/09/05 09:10:32;;;;;;;2.70;1.73;;;;;;;23.82;55.48;98546.41;4987744;28;20316;-81
2023/09/05 09:13:17;;;;;;;2.03;1.60;;;;;;;23.93;56.19;98553.28;4995345;28;20220;-81
2023/09/05 09:15:46;;;;;;;1.80;1.70;;;;;;;24.04;54.83;98529.44;4988172;28;20208;-81
2023/09/05 09:18:13;;;;;;;1.63;1.53;;;;;;;24.11;53.00;98527.69;4992866;28;20211;-83
2023/09/05 09:20:44;;;;;;;1.97;1.77;;;;;;;24.11;53.97;98545.72;4997237;28;20237;-84
2023/09/05 09:23:12;;;;;;;1.67;1.50;;;;;;;24.24;54.49;98557.63;4996643;28;20259;-84
2023/09/05 09:25:47;;;;;;;2.07;1.87;;;;;;;24.34;53.93;98555.53;4997487;28;20202;-83
2023/09/05 09:28:22;;;;;;;2.20;1.77;;;;;;;24.34;54.49;98557.38;4997336;28;20209;-82
2023/09/05 09:30:56;;;;;;;2.00;1.70;;;;;;;24.24;52.91;98546.81;4996731;28;20233;-81
2023/09/05 09:33:23;;;;;;;1.80;1.70;;;;;;;24.28;53.48;98548.13;4996062;28;20673;-82
2023/09/05 09:36:03;;;;;;;2.30;1.90;;;;;;;24.37;53.45;98552.44;4997618;28;20535;-82
2023/09/05 09:38:31;;;;;;;2.20;1.73;;;;;;;24.41;54.50;98553.75;4997175;28;20214;-82
2023/09/05 09:41:00;;;;;;;2.00;1.60;;;;;;;24.57;55.17;98564.44;4996493;28;20548;-83
2023/09/05 09:43:27;;;;;;;1.80;1.60;;;;;;;24.73;54.30;98550.78;4996345;28;20284;-82
2023/09/05 09:45:56;;;;;;;1.30;1.20;;;;;;;24.84;53.56;98544.94;4994646;28;20231;-82
2023/09/05 09:48:26;;;;;;;1.60;1.37;;;;;;;24.98;52.84;98535.09;4996312;28;20410;-83
2023/09/05 09:50:54;;;;;;;1.77;1.50;;;;;;;25.08;51.67;98528.41;4995794;28;20230;-83
2023/09/05 09:53:29;;;;;;;2.00;1.53;;;;;;;25.09;52.20;98532.78;4996923;28;20565;-83
2023/09/05 09:55:57;;;;;;;2.53;1.63;;;;;;;25.07;52.37;98529.44;4997165;28;20209;-83
2023/09/05 09:58:27;;;;;;;1.60;1.50;;;;;;;25.08;51.25;98516.75;4995471;28;20217;-83
2023/09/05 10:00:55;;;;;;;3.00;1.40;;;;;;;25.08;51.91;98522.16;4995108;28;20709;-84
2023/09/05 10:03:24;;;;;;;2.03;1.60;;;;;;;25.12;52.40;98527.00;4990468;28;20234;-84
2023/09/05 10:05:52;;;;;;;1.93;1.63;;;;;;;25.07;51.82;98515.06;4976655;28;20209;-83
2023/09/05 10:08:19;;;;;;;1.80;1.57;;;;;;;25.17;51.08;98502.09;4977096;28;20234;-84
2023/09/05 10:10:46;;;;;;;2.08;1.27;;;;;;;25.27;52.69;98525.16;4979538;28;20234;-84
2023/09/05 10:13:16;;;;;;;2.00;1.63;;;;;;;25.38;51.21;98504.91;4981065;28;20211;-85
2023/09/05 10:15:45;;;;;;;2.77;1.70;;;;;;;25.38;51.73;98508.44;4992835;28;20224;-85
2023/09/05 10:18:13;;;;;;;2.03;1.70;;;;;;;25.37;51.07;98497.81;5001234;28;20210;-84
2023/09/05 10:20:41;;;;;;;1.83;1.60;;;;;;;25.40;51.02;98500.97;4999842;28;20505;-84
2023/09/05 10:23:08;;;;;;;1.70;1.40;;;;;;;25.44;51.70;98505.00;4999639;28;20214;-84
2023/09/05 10:25:35;;;;;;;2.23;1.40;;;;;;;25.51;50.88;98497.78;4998918;28;20228;-84
2023/09/05 10:28:02;;;;;;;1.60;1.50;;;;;;;25.56;50.64;98498.06;5000854;28;20233;-84
2023/09/05 10:30:31;;;;;;;1.53;1.43;;;;;;;25.66;51.19;98516.69;5001738;28;20230;-85
2023/09/05 10:32:58;;;;;;;1.80;1.70;;;;;;;25.66;50.56;98498.56;5001871;28;20252;-85
2023/09/05 10:35:25;;;;;;;1.60;1.50;;;;;;;25.72;50.91;98507.81;4999073;28;20214;-84
2023/09/05 10:37:56;;;;;;;1.50;1.33;;;;;;;25.74;50.64;98497.59;5001266;28;20250;-84
2023/09/05 10:40:33;;;;;;;1.90;1.70;;;;;;;25.83;50.38;98494.59;5001738;28;20233;-84
2023/09/05 10:43:02;;;;;;;1.53;1.40;;;;;;;25.87;50.53;98512.13;5000264;28;20214;-85
2023/09/05 10:45:32;;;;;;;1.90;1.40;;;;;;;25.88;49.53;98492.13;5000821;28;20288;-85
2023/09/05 10:48:02;;;;;;;1.75;1.55;;;;;;;25.88;49.30;98486.72;4999687;28;20210;-85
2023/09/05 10:50:29;;;;;;;1.63;1.30;;;;;;;25.85;50.76;98491.69;4997938;28;20257;-85
2023/09/05 10:53:21;;;;;;;1.90;1.30;;;;;;;26.01;50.31;98489.59;5002648;28;20214;-85
2023/09/05 10:55:50;;;;;;;2.67;1.40;;;;;;;26.11;50.36;98481.97;4998441;28;20214;-79
2023/09/05 10:58:53;;;;;;;1.87;1.60;;;;;;;26.06;49.23;98473.59;4992898;28;20214;-83
2023/09/05 11:01:45;;;;;;;1.73;1.50;;;;;;;26.10;47.65;98455.88;4991515;28;20229;-84
2023/09/05 11:04:28;;;;;;;1.50;1.40;;;;;;;26.16;49.09;98479.50;5007893;28;20268;-84
2023/09/05 11:07:06;;;;;;;2.50;1.67;;;;;;;26.20;48.62;98469.94;5007968;28;20415;-84
2023/09/05 11:09:44;;;;;;;2.17;1.50;;;;;;;26.28;48.45;98482.53;5012626;28;20221;-84
2023/09/05 11:12:12;;;;;;;1.33;1.23;;;;;;;26.33;48.52;98470.06;5004023;28;20332;-84
2023/09/05 11:14:39;;;;;;;1.33;1.23;;;;;;;26.35;48.14;98478.84;5001509;28;20234;-83
2023/09/05 11:17:12;;;;;;;4.57;1.80;;;;;;;26.29;48.62;98485.06;4997160;28;20210;-84
2023/09/05 11:19:42;;;;;;;1.90;1.70;;;;;;;26.35;47.52;98480.72;4993396;28;20434;-85
2023/09/05 11:22:10;;;;;;;2.63;1.88;;;;;;;26.32;47.37;98483.78;4995807;28;20230;-85
2023/09/05 11:24:38;;;;;;;1.98;1.40;;;;;;;26.35;47.51;98497.81;4985952;28;20325;-85
2023/09/05 11:27:06;;;;;;;1.73;1.63;;;;;;;26.32;47.45;98490.06;4999509;28;20206;-85
2023/09/05 11:29:33;;;;;;;1.38;1.27;;;;;;;26.36;48.04;98496.78;4997121;28;20217;-85
2023/09/05 11:32:00;;;;;;;2.90;1.27;;;;;;;26.46;48.50;98499.16;4996379;28;20245;-85
2023/09/05 11:34:29;;;;;;;1.70;1.30;;;;;;;26.61;47.30;98483.63;4998491;28;20210;-86